createdAt,value
2023-07-24T00:03:00.173Z,5.05
2023-07-24T00:05:46.579Z,5.80
2023-07-24T00:08:32.713Z,5.55
2023-07-24T00:11:18.909Z,6.13
2023-07-24T00:14:05.131Z,6.97
2023-07-24T00:16:51.517Z,5.80
2023-07-24T00:19:36.935Z,5.25
2023-07-24T00:22:23.061Z,4.50
2023-07-24T00:25:10.262Z,4.22
2023-07-24T00:27:56.656Z,4.43
2023-07-24T00:30:43.676Z,4.90
2023-07-24T00:33:29.908Z,5.25
2023-07-24T00:36:15.569Z,4.30
2023-07-24T00:39:01.581Z,4.03
2023-07-24T00:41:50.124Z,5.22
2023-07-24T00:44:36.102Z,4.97
2023-07-24T00:47:22.716Z,5.53
2023-07-24T00:50:09.598Z,8.38
2023-07-24T00:52:55.729Z,6.43
2023-07-24T00:55:42.853Z,5.68
2023-07-24T00:58:29.307Z,5.22
2023-07-24T01:01:18.216Z,4.28
2023-07-24T01:04:05.583Z,6.10
2023-07-24T01:06:52.383Z,7.97
2023-07-24T01:09:37.980Z,7.38
2023-07-24T01:12:33.454Z,6.47
2023-07-24T01:15:28.878Z,5.53
2023-07-24T01:18:17.241Z,6.60
2023-07-24T01:21:03.253Z,7.80
2023-07-24T01:24:35.208Z,5.72
2023-07-24T01:27:25.659Z,5.38
2023-07-24T01:30:12.969Z,6.82
2023-07-24T01:32:58.368Z,4.80
2023-07-24T01:35:45.125Z,6.30
2023-07-24T01:38:35.745Z,5.65
2023-07-24T01:41:22.320Z,9.90
2023-07-24T01:44:07.842Z,7.95
2023-07-24T01:46:53.993Z,5.57
2023-07-24T01:49:40.024Z,7.07
2023-07-24T01:52:27.456Z,5.53
2023-07-24T01:55:13.528Z,5.57
2023-07-24T01:57:59.788Z,8.30
2023-07-24T02:00:45.191Z,5.60
2023-07-24T02:03:31.251Z,5.85
2023-07-24T02:06:16.998Z,5.03
2023-07-24T02:09:03.565Z,4.75
2023-07-24T02:11:49.467Z,6.32
2023-07-24T02:14:35.324Z,5.38
2023-07-24T02:17:21.159Z,5.78
2023-07-24T02:20:07.660Z,6.18
2023-07-24T02:23:02.859Z,5.05
2023-07-24T02:25:52.369Z,4.55
2023-07-24T02:28:38.168Z,5.72
2023-07-24T02:31:24.377Z,4.88
2023-07-24T02:34:10.384Z,4.05
2023-07-24T02:36:56.404Z,4.78
2023-07-24T02:39:42.270Z,6.63
2023-07-24T02:42:28.261Z,9.32
2023-07-24T02:45:14.380Z,7.88
2023-07-24T02:48:01.169Z,6.20
2023-07-24T02:50:50.961Z,4.35
2023-07-24T02:53:36.855Z,5.60
2023-07-24T02:56:22.957Z,5.25
2023-07-24T02:59:09.092Z,3.72
2023-07-24T03:01:54.798Z,3.85
2023-07-24T03:04:41.474Z,4.22
2023-07-24T03:07:27.002Z,6.22
2023-07-24T03:10:13.035Z,6.07
2023-07-24T03:12:58.714Z,5.47
2023-07-24T03:15:56.056Z,8.52
2023-07-24T03:18:41.772Z,6.10
2023-07-24T03:21:27.534Z,4.15
2023-07-24T03:24:13.623Z,4.03
2023-07-24T03:26:59.636Z,5.28
2023-07-24T03:29:45.687Z,5.45
2023-07-24T03:32:32.004Z,4.47
2023-07-24T03:35:17.994Z,5.38
2023-07-24T03:38:03.921Z,4.47
2023-07-24T03:40:50.930Z,4.43
2023-07-24T03:43:36.676Z,5.63
2023-07-24T03:46:22.306Z,7.15
2023-07-24T03:49:08.153Z,4.10
2023-07-24T03:51:53.653Z,5.20
2023-07-24T03:54:39.748Z,4.97
2023-07-24T03:57:25.545Z,5.72
2023-07-24T04:00:12.204Z,4.10
2023-07-24T04:02:57.835Z,4.18
2023-07-24T04:05:43.630Z,4.80
2023-07-24T04:08:29.267Z,5.38
2023-07-24T04:11:15.699Z,6.05
2023-07-24T04:14:01.576Z,5.13
2023-07-24T04:16:47.714Z,5.25
2023-07-24T04:19:33.591Z,4.28
2023-07-24T04:22:19.928Z,7.55
2023-07-24T04:25:06.153Z,6.90
2023-07-24T04:27:51.945Z,5.10
2023-07-24T04:30:38.165Z,5.50
2023-07-24T04:33:28.170Z,4.07
2023-07-24T04:36:15.829Z,3.72
2023-07-24T04:39:04.239Z,4.35
2023-07-24T04:41:51.792Z,6.55
2023-07-24T04:44:37.906Z,5.03
2023-07-24T04:47:23.504Z,5.25
2023-07-24T04:50:10.137Z,5.93
2023-07-24T04:52:55.924Z,4.90
2023-07-24T04:55:41.879Z,5.68
2023-07-24T04:58:27.578Z,4.97
2023-07-24T05:01:14.205Z,5.88
2023-07-24T05:03:59.877Z,4.32
2023-07-24T05:06:45.747Z,7.38
2023-07-24T05:09:31.383Z,5.75
2023-07-24T05:12:17.380Z,4.05
2023-07-24T05:15:03.551Z,6.80
2023-07-24T05:17:49.475Z,7.35
2023-07-24T05:20:35.023Z,7.75
2023-07-24T05:23:21.531Z,5.82
2023-07-24T05:26:07.076Z,4.55
2023-07-24T05:28:54.003Z,6.53
2023-07-24T05:31:39.864Z,6.25
2023-07-24T05:34:26.852Z,4.72
2023-07-24T05:37:12.640Z,5.40
2023-07-24T05:39:58.589Z,5.35
2023-07-24T05:42:44.691Z,6.80
2023-07-24T05:45:30.762Z,5.10
2023-07-24T05:48:16.382Z,4.90
2023-07-24T05:51:02.386Z,5.88
2023-07-24T05:53:48.386Z,5.50
2023-07-24T05:56:34.428Z,11.25
2023-07-24T05:59:20.068Z,9.60
2023-07-24T06:02:06.463Z,8.55
2023-07-24T06:04:52.246Z,10.27
2023-07-24T06:07:38.566Z,9.32
2023-07-24T06:10:24.120Z,8.65
2023-07-24T06:13:10.244Z,9.18
2023-07-24T06:15:56.171Z,7.38
2023-07-24T06:18:44.002Z,6.45
2023-07-24T06:21:29.826Z,4.80
2023-07-24T06:24:16.063Z,5.50
2023-07-24T06:27:02.139Z,5.93
2023-07-24T06:29:51.300Z,9.50
2023-07-24T06:32:39.243Z,5.85
2023-07-24T06:35:25.510Z,5.18
2023-07-24T06:38:11.082Z,5.00
2023-07-24T06:40:57.303Z,5.07
2023-07-24T06:43:43.944Z,5.40
2023-07-24T06:46:31.230Z,4.53
2023-07-24T06:49:17.253Z,6.53
2023-07-24T06:52:03.592Z,4.97
2023-07-24T06:54:49.094Z,4.55
2023-07-24T06:57:35.187Z,8.13
2023-07-24T07:00:20.823Z,4.53
2023-07-24T07:03:06.764Z,7.85
2023-07-24T07:05:52.945Z,7.82
2023-07-24T07:08:39.180Z,7.22
2023-07-24T07:11:25.276Z,5.68
2023-07-24T07:14:11.649Z,7.18
2023-07-24T07:16:57.193Z,7.55
2023-07-24T07:19:42.990Z,6.53
2023-07-24T07:22:28.918Z,10.00
2023-07-24T07:25:17.324Z,6.55
2023-07-24T07:28:02.967Z,6.82
2023-07-24T07:30:49.392Z,5.90
2023-07-24T07:33:35.393Z,4.90
2023-07-24T07:36:23.631Z,6.55
2023-07-24T07:39:10.759Z,10.35
2023-07-24T07:42:07.999Z,4.60
2023-07-24T07:45:02.438Z,5.95
2023-07-24T07:47:50.491Z,7.55
2023-07-24T07:50:36.717Z,5.70
2023-07-24T07:53:23.988Z,6.57
2023-07-24T07:56:09.829Z,5.00
2023-07-24T07:58:56.258Z,4.25
2023-07-24T08:01:43.216Z,4.30
2023-07-24T08:04:29.242Z,4.15
2023-07-24T08:07:14.931Z,3.92
2023-07-24T08:10:00.875Z,4.15
2023-07-24T08:12:46.991Z,4.45
2023-07-24T08:15:39.194Z,3.53
2023-07-24T08:18:25.299Z,4.18
2023-07-24T08:21:11.202Z,4.50
2023-07-24T08:23:59.189Z,3.85
2023-07-24T08:26:46.431Z,4.30
2023-07-24T08:29:32.701Z,4.10
2023-07-24T08:32:21.360Z,4.70
2023-07-24T08:35:07.741Z,3.85
2023-07-24T08:38:02.332Z,3.22
2023-07-24T08:40:48.587Z,3.70
2023-07-24T08:43:37.251Z,4.35
2023-07-24T08:46:26.355Z,5.32
2023-07-24T08:49:14.122Z,3.75
2023-07-24T08:52:01.889Z,4.47
2023-07-24T08:54:48.649Z,4.90
2023-07-24T08:57:35.768Z,3.25
2023-07-24T09:00:22.180Z,4.55
2023-07-24T09:03:09.252Z,3.92
2023-07-24T09:05:55.744Z,2.85
2023-07-24T09:08:43.232Z,4.53
2023-07-24T09:11:29.143Z,6.40
2023-07-24T09:14:24.638Z,5.43
2023-07-24T09:17:12.382Z,4.90
2023-07-24T09:19:58.954Z,5.13
2023-07-24T09:23:12.037Z,3.63
2023-07-24T09:26:00.400Z,4.70
2023-07-24T09:28:54.299Z,6.97
2023-07-24T09:31:40.392Z,4.35
2023-07-24T09:34:26.957Z,3.80
2023-07-24T09:37:27.449Z,4.45
2023-07-24T09:40:15.921Z,3.97
2023-07-24T09:45:58.158Z,3.75
2023-07-24T09:51:51.383Z,3.55
2023-07-24T09:54:58.190Z,3.28
2023-07-24T09:57:45.251Z,5.85
2023-07-24T10:00:32.550Z,4.65
2023-07-24T10:03:19.253Z,5.28
2023-07-24T10:06:05.641Z,4.35
2023-07-24T10:08:53.661Z,4.30
2023-07-24T10:11:39.791Z,4.63
2023-07-24T10:14:26.825Z,5.28
2023-07-24T10:17:12.618Z,4.90
2023-07-24T10:20:04.881Z,6.43
2023-07-24T10:22:51.617Z,5.55
2023-07-24T10:25:44.812Z,6.25
2023-07-24T10:28:34.613Z,10.38
2023-07-24T10:31:23.755Z,5.82
2023-07-24T10:34:10.490Z,2.78
2023-07-24T10:37:04.386Z,4.30
2023-07-24T10:39:50.241Z,6.65
2023-07-24T10:42:37.432Z,4.97
2023-07-24T10:45:22.970Z,6.50
2023-07-24T10:48:12.510Z,4.75
2023-07-24T10:50:59.815Z,4.43
2023-07-24T10:53:48.971Z,5.05
2023-07-24T10:56:34.634Z,3.63
2023-07-24T10:59:20.410Z,3.92
2023-07-24T11:02:06.490Z,6.00
2023-07-24T11:04:52.769Z,4.80
2023-07-24T11:07:38.610Z,4.60
2023-07-24T11:10:24.933Z,3.50
2023-07-24T11:13:12.587Z,5.60
2023-07-24T11:16:05.360Z,3.78
2023-07-24T11:18:55.121Z,3.33
2023-07-24T11:21:42.303Z,4.30
2023-07-24T11:24:27.996Z,5.57
2023-07-24T11:27:20.336Z,5.85
2023-07-24T11:30:07.027Z,6.95
2023-07-24T11:32:53.106Z,4.00
2023-07-24T11:35:41.090Z,6.93
2023-07-24T11:38:27.137Z,3.92
2023-07-24T11:41:13.897Z,5.43
2023-07-24T11:44:00.113Z,3.78
2023-07-24T11:46:45.939Z,4.07
2023-07-24T11:49:32.917Z,4.97
2023-07-24T11:52:18.672Z,7.63
2023-07-24T11:55:05.571Z,8.40
2023-07-24T11:58:01.692Z,4.75
2023-07-24T12:00:49.065Z,4.70
2023-07-24T12:03:37.728Z,7.22
2023-07-24T12:06:25.270Z,5.32
2023-07-24T12:09:14.578Z,4.75
2023-07-24T12:12:00.909Z,5.57
2023-07-24T12:14:46.471Z,7.10
2023-07-24T12:17:32.533Z,6.82
2023-07-24T12:20:18.793Z,7.28
2023-07-24T12:23:05.244Z,8.48
2023-07-24T12:25:51.407Z,8.52
2023-07-24T12:28:37.746Z,9.43
2023-07-24T12:31:26.790Z,4.63
2023-07-24T12:34:13.063Z,4.70
2023-07-24T12:36:58.794Z,4.60
2023-07-24T12:39:48.988Z,4.40
2023-07-24T12:42:35.114Z,3.97
2023-07-24T12:45:21.194Z,5.20
2023-07-24T12:48:06.625Z,4.40
2023-07-24T12:50:53.234Z,4.30
2023-07-24T12:53:41.563Z,3.80
2023-07-24T12:56:38.311Z,4.95
2023-07-24T12:59:26.749Z,4.72
2023-07-24T13:02:12.750Z,6.63
2023-07-24T13:04:58.609Z,3.88
2023-07-24T13:07:44.747Z,3.67
2023-07-24T13:10:30.348Z,7.80
2023-07-24T13:13:16.548Z,4.63
2023-07-24T13:16:02.948Z,3.63
2023-07-24T13:18:49.068Z,7.82
2023-07-24T13:21:34.801Z,6.10
2023-07-24T13:24:21.183Z,4.07
2023-07-24T13:27:08.739Z,7.45
2023-07-24T13:29:54.932Z,3.40
2023-07-24T13:32:41.808Z,5.68
2023-07-24T13:35:28.344Z,5.15
2023-07-24T13:38:15.753Z,3.47
2023-07-24T13:41:02.794Z,6.22
2023-07-24T13:43:48.936Z,8.50
2023-07-24T13:46:37.296Z,5.00
2023-07-24T13:49:25.714Z,4.38
2023-07-24T13:52:11.943Z,6.53
2023-07-24T13:54:58.295Z,7.90
2023-07-24T13:57:44.605Z,6.82
2023-07-24T14:00:30.563Z,5.40
2023-07-24T14:03:16.571Z,4.13
2023-07-24T14:06:02.609Z,4.63
2023-07-24T14:08:48.591Z,6.18
2023-07-24T14:11:34.606Z,6.45
2023-07-24T14:14:21.270Z,5.45
2023-07-24T14:17:07.256Z,5.22
2023-07-24T14:19:53.774Z,6.50
2023-07-24T14:22:39.487Z,7.78
2023-07-24T14:25:25.955Z,5.82
2023-07-24T14:28:11.927Z,4.82
2023-07-24T14:30:58.327Z,6.07
2023-07-24T14:33:43.890Z,8.82
2023-07-24T14:36:35.067Z,5.32
2023-07-24T14:39:21.178Z,4.93
2023-07-24T14:42:07.928Z,5.15
2023-07-24T14:44:54.244Z,5.40
2023-07-24T14:47:40.313Z,5.75
2023-07-24T14:50:25.973Z,4.97
2023-07-24T14:53:12.069Z,7.72
2023-07-24T14:55:57.666Z,5.88
2023-07-24T14:58:46.491Z,5.38
2023-07-24T15:01:33.129Z,7.00
2023-07-24T15:04:19.756Z,5.40
2023-07-24T15:07:06.115Z,10.48
2023-07-24T15:09:52.232Z,6.80
2023-07-24T15:12:37.819Z,5.95
2023-07-24T15:15:23.755Z,9.65
2023-07-24T15:18:11.261Z,6.97
2023-07-24T15:20:57.800Z,10.15
2023-07-24T15:23:43.734Z,8.00
2023-07-24T15:26:29.907Z,9.60
2023-07-24T15:29:19.862Z,7.25
2023-07-24T15:32:07.427Z,7.30
2023-07-24T15:34:53.330Z,6.60
2023-07-24T15:37:39.314Z,7.20
2023-07-24T15:40:24.970Z,8.20
2023-07-24T15:43:11.536Z,8.23
2023-07-24T15:45:57.623Z,10.88
2023-07-24T15:48:44.019Z,8.68
2023-07-24T15:51:31.185Z,8.05
2023-07-24T15:54:17.613Z,7.72
2023-07-24T15:57:03.288Z,6.10
2023-07-24T15:59:49.167Z,7.25
2023-07-24T16:02:35.201Z,6.45
2023-07-24T16:05:22.741Z,11.25
2023-07-24T16:08:08.292Z,7.97
2023-07-24T16:10:54.230Z,7.18
2023-07-24T16:13:40.799Z,10.25
2023-07-24T16:16:26.671Z,6.95
2023-07-24T16:19:21.293Z,11.02
2023-07-24T16:22:07.387Z,9.75
2023-07-24T16:24:53.221Z,7.82
2023-07-24T16:27:39.092Z,8.38
2023-07-24T16:30:24.920Z,8.18
2023-07-24T16:33:11.118Z,8.65
2023-07-24T16:35:56.738Z,11.48
2023-07-24T16:38:42.898Z,8.55
2023-07-24T16:41:28.405Z,6.43
2023-07-24T16:44:15.905Z,6.25
2023-07-24T16:49:51.081Z,7.78
2023-07-24T16:52:36.829Z,9.05
2023-07-24T16:55:22.817Z,13.65
2023-07-24T16:58:08.400Z,8.25
2023-07-24T17:00:54.696Z,9.45
2023-07-24T17:03:40.501Z,8.13
2023-07-24T17:06:26.610Z,6.50
2023-07-24T17:09:12.292Z,11.50
2023-07-24T17:11:58.297Z,7.85
2023-07-24T17:14:43.792Z,8.65
2023-07-24T17:17:29.881Z,9.43
2023-07-24T17:20:15.596Z,10.00
2023-07-24T17:23:03.789Z,10.70
2023-07-24T17:25:49.535Z,14.68
2023-07-24T17:28:35.358Z,8.93
2023-07-24T17:31:21.614Z,10.98
2023-07-24T17:34:07.879Z,12.07
2023-07-24T17:36:53.555Z,15.95
2023-07-24T17:39:39.501Z,9.15
2023-07-24T17:42:25.215Z,11.57
2023-07-24T17:45:11.242Z,11.23
2023-07-24T17:47:57.667Z,11.98
2023-07-24T17:50:43.863Z,13.75
2023-07-24T17:53:29.401Z,11.20
2023-07-24T17:56:15.216Z,13.45
2023-07-24T17:59:00.815Z,10.32
2023-07-24T18:01:47.213Z,14.68
2023-07-24T18:04:32.970Z,10.80
2023-07-24T18:07:19.317Z,14.85
2023-07-24T18:10:09.041Z,12.70
2023-07-24T18:12:55.791Z,12.23
2023-07-24T18:15:42.370Z,16.48
2023-07-24T18:18:28.899Z,11.48
2023-07-24T18:21:14.948Z,10.45
2023-07-24T18:24:05.994Z,12.25
2023-07-24T18:26:51.878Z,10.75
2023-07-24T18:29:38.070Z,15.45
2023-07-24T18:32:26.063Z,11.13
2023-07-24T18:35:12.877Z,15.80
2023-07-24T18:37:59.163Z,12.98
2023-07-24T18:40:45.410Z,13.35
2023-07-24T18:43:30.890Z,21.83
2023-07-24T18:46:20.012Z,18.05
2023-07-24T18:49:06.088Z,16.63
2023-07-24T18:51:53.264Z,19.60
2023-07-24T18:54:40.112Z,18.02
2023-07-24T18:57:26.678Z,17.95
2023-07-24T19:00:31.534Z,12.20
2023-07-24T19:03:37.412Z,10.30
2023-07-24T19:06:23.537Z,9.90
2023-07-24T19:09:09.952Z,10.38
2023-07-24T19:11:55.890Z,14.80
2023-07-24T19:14:41.860Z,12.52
2023-07-24T19:17:27.419Z,13.13
2023-07-24T19:20:13.856Z,12.43
2023-07-24T19:23:00.149Z,12.77
2023-07-24T19:25:47.343Z,12.70
2023-07-24T19:28:32.744Z,10.93
2023-07-24T19:31:18.722Z,12.73
2023-07-24T19:34:04.143Z,15.60
2023-07-24T19:36:50.147Z,12.32
2023-07-24T19:39:35.662Z,13.38
2023-07-24T19:42:21.887Z,13.57
2023-07-24T19:45:07.844Z,11.23
2023-07-24T19:47:53.650Z,13.43
2023-07-24T19:50:39.357Z,16.60
2023-07-24T19:53:26.925Z,11.77
2023-07-24T19:56:12.439Z,15.88
2023-07-24T19:58:58.341Z,16.40
2023-07-24T20:01:43.709Z,13.93
2023-07-24T20:04:29.747Z,14.90
2023-07-24T20:07:18.893Z,19.75
2023-07-24T20:10:05.475Z,17.65
2023-07-24T20:12:51.285Z,24.08
2023-07-24T20:15:37.476Z,31.05
2023-07-24T20:18:22.979Z,20.67
2023-07-24T20:21:09.154Z,16.95
2023-07-24T20:23:55.450Z,11.82
2023-07-24T20:26:41.269Z,13.35
2023-07-24T20:29:26.868Z,13.10
2023-07-24T20:32:13.468Z,13.68
2023-07-24T20:34:59.368Z,10.60
2023-07-24T20:37:45.294Z,15.00
2023-07-24T20:40:31.254Z,10.60
2023-07-24T20:43:17.268Z,19.63
2023-07-24T20:46:14.230Z,15.90
2023-07-24T20:49:00.199Z,10.90
2023-07-24T20:51:46.262Z,14.05
2023-07-24T20:54:32.518Z,11.13
2023-07-24T20:57:18.048Z,9.63
2023-07-24T21:00:04.327Z,8.63
2023-07-24T21:02:51.948Z,14.57
2023-07-24T21:05:38.675Z,9.50
2023-07-24T21:08:24.444Z,10.35
2023-07-24T21:11:10.279Z,9.30
2023-07-24T21:13:55.873Z,8.98
2023-07-24T21:16:41.653Z,10.32
2023-07-24T21:19:27.480Z,10.85
2023-07-24T21:22:14.394Z,10.95
2023-07-24T21:25:00.069Z,17.90
2023-07-24T21:27:46.392Z,10.45
2023-07-24T21:30:32.064Z,11.35
2023-07-24T21:33:18.368Z,9.05
2023-07-24T21:36:04.789Z,9.82
2023-07-24T21:38:53.064Z,12.85
2023-07-24T21:41:39.016Z,10.60
2023-07-24T21:44:27.420Z,7.78
2023-07-24T21:47:13.362Z,9.70
2023-07-24T21:50:00.310Z,9.82
2023-07-24T21:52:46.433Z,8.43
2023-07-24T21:55:32.201Z,12.48
2023-07-24T21:58:18.144Z,13.05
2023-07-24T22:01:04.341Z,13.23
2023-07-24T22:03:49.959Z,11.43
2023-07-24T22:06:36.178Z,6.43
2023-07-24T22:09:21.998Z,7.57
2023-07-24T22:12:08.043Z,5.38
2023-07-24T22:14:54.183Z,6.72
2023-07-24T22:17:40.001Z,5.47
2023-07-24T22:23:14.829Z,6.05
2023-07-24T22:26:03.393Z,7.30
2023-07-24T22:28:49.172Z,6.18
2023-07-24T22:31:34.875Z,5.60
2023-07-24T22:34:20.824Z,5.57
2023-07-24T22:37:07.879Z,3.85
2023-07-24T22:39:53.966Z,6.43
2023-07-24T22:42:39.501Z,3.20
2023-07-24T22:45:26.100Z,5.82
2023-07-24T22:48:11.972Z,4.57
2023-07-24T22:50:57.686Z,3.92
2023-07-24T22:53:44.059Z,5.00
2023-07-24T22:56:30.096Z,2.92
2023-07-24T22:59:23.072Z,3.65
2023-07-24T23:02:09.146Z,4.95
2023-07-24T23:04:55.132Z,6.97
2023-07-24T23:07:41.060Z,4.80
2023-07-24T23:10:26.491Z,8.48
2023-07-24T23:13:12.437Z,6.93
2023-07-24T23:16:00.563Z,8.07
2023-07-24T23:18:46.292Z,3.90
2023-07-24T23:21:32.223Z,4.97
2023-07-24T23:24:18.241Z,4.47
2023-07-24T23:27:03.994Z,3.45
2023-07-24T23:29:50.130Z,5.82
2023-07-24T23:32:35.842Z,4.30
2023-07-24T23:35:21.826Z,3.30
2023-07-24T23:38:07.549Z,4.15
2023-07-24T23:41:00.921Z,5.18
2023-07-24T23:43:48.145Z,3.45
2023-07-24T23:46:35.588Z,6.20
2023-07-24T23:49:21.530Z,3.17
2023-07-24T23:52:08.077Z,4.13
2023-07-24T23:54:54.251Z,3.58
2023-07-24T23:57:40.080Z,4.05
